createdAt,value
2022-12-18T00:01:22.858Z,41.55
2022-12-18T00:03:49.914Z,41.65
2022-12-18T00:06:20.128Z,42.00
2022-12-18T00:08:47.531Z,41.30
2022-12-18T00:11:21.856Z,44.78
2022-12-18T00:13:48.870Z,45.22
2022-12-18T00:16:17.971Z,45.17
2022-12-18T00:18:51.580Z,47.67
2022-12-18T00:21:19.401Z,43.85
2022-12-18T00:23:47.601Z,42.60
2022-12-18T00:26:17.474Z,46.05
2022-12-18T00:28:44.781Z,45.40
2022-12-18T00:31:15.268Z,42.30
2022-12-18T00:33:44.284Z,46.08
2022-12-18T00:36:16.173Z,46.88
2022-12-18T00:38:42.956Z,44.03
2022-12-18T00:41:13.175Z,45.63
2022-12-18T00:43:41.194Z,46.25
2022-12-18T00:46:08.057Z,47.90
2022-12-18T00:48:41.187Z,45.67
2022-12-18T00:51:09.825Z,43.60
2022-12-18T00:53:36.539Z,44.65
2022-12-18T00:56:05.116Z,48.67
2022-12-18T00:58:31.880Z,45.53
2022-12-18T01:00:58.389Z,48.47
2022-12-18T01:03:29.376Z,43.30
2022-12-18T01:05:55.855Z,47.63
2022-12-18T01:08:22.316Z,48.08
2022-12-18T01:10:49.037Z,53.10
2022-12-18T01:13:17.804Z,48.88
2022-12-18T01:15:51.248Z,48.88
2022-12-18T01:18:17.903Z,47.20
2022-12-18T01:20:44.458Z,57.45
2022-12-18T01:23:12.725Z,52.47
2022-12-18T01:25:39.438Z,47.90
2022-12-18T01:28:06.094Z,55.53
2022-12-18T01:30:32.816Z,55.95
2022-12-18T01:32:59.301Z,55.15
2022-12-18T01:35:25.846Z,48.60
2022-12-18T01:38:00.045Z,55.90
2022-12-18T01:40:26.551Z,51.95
2022-12-18T01:42:54.264Z,56.97
2022-12-18T01:45:34.557Z,57.83
2022-12-18T01:48:07.402Z,57.97
2022-12-18T01:50:40.715Z,55.45
2022-12-18T01:53:18.301Z,55.63
2022-12-18T01:55:49.210Z,59.55
2022-12-18T01:58:18.604Z,53.95
2022-12-18T02:00:49.053Z,53.55
2022-12-18T02:03:15.844Z,58.13
2022-12-18T02:05:53.062Z,55.58
2022-12-18T02:08:40.302Z,57.78
2022-12-18T02:11:22.745Z,61.55
2022-12-18T02:14:03.204Z,66.43
2022-12-18T02:16:33.030Z,61.17
2022-12-18T02:19:04.441Z,61.95
2022-12-18T02:21:48.934Z,66.22
2022-12-18T02:24:36.262Z,60.97
2022-12-18T02:27:09.440Z,64.85
2022-12-18T02:29:57.674Z,66.95
2022-12-18T02:32:48.261Z,64.43
2022-12-18T02:35:22.472Z,72.30
2022-12-18T02:37:49.485Z,69.18
2022-12-18T02:40:18.134Z,65.85
2022-12-18T02:42:44.869Z,55.55
2022-12-18T02:45:11.412Z,68.47
2022-12-18T02:47:41.812Z,59.97
2022-12-18T02:50:15.319Z,61.20
2022-12-18T02:52:51.044Z,64.13
2022-12-18T02:55:36.757Z,65.50
2022-12-18T02:58:43.421Z,62.85
2022-12-18T03:01:24.507Z,72.97
2022-12-18T03:04:01.430Z,70.85
2022-12-18T03:06:30.357Z,72.90
2022-12-18T03:09:02.074Z,67.13
2022-12-18T03:11:52.497Z,68.72
2022-12-18T03:14:22.319Z,74.03
2022-12-18T03:16:53.636Z,75.32
2022-12-18T03:19:25.141Z,77.13
2022-12-18T03:21:58.277Z,67.63
2022-12-18T03:24:27.508Z,74.25
2022-12-18T03:27:02.289Z,72.18
2022-12-18T03:29:35.506Z,73.40
2022-12-18T03:32:36.272Z,75.93
2022-12-18T03:35:06.504Z,75.82
2022-12-18T03:37:33.839Z,67.43
2022-12-18T03:40:00.909Z,76.05
2022-12-18T03:42:38.516Z,72.07
2022-12-18T03:45:18.609Z,73.65
2022-12-18T03:48:19.061Z,67.95
2022-12-18T03:50:45.617Z,68.82
2022-12-18T03:53:35.036Z,72.68
2022-12-18T03:56:04.741Z,75.93
2022-12-18T03:58:35.256Z,75.82
2022-12-18T04:01:05.842Z,78.88
2022-12-18T04:03:40.101Z,70.22
2022-12-18T04:06:07.574Z,81.65
2022-12-18T04:08:36.026Z,78.45
2022-12-18T04:11:05.367Z,74.88
2022-12-18T04:13:40.121Z,76.70
2022-12-18T04:16:13.976Z,77.47
2022-12-18T04:18:40.540Z,71.80
2022-12-18T04:21:07.099Z,75.53
2022-12-18T04:23:33.749Z,73.18
2022-12-18T04:26:00.211Z,70.88
2022-12-18T04:28:26.717Z,76.47
2022-12-18T04:30:55.534Z,81.47
2022-12-18T04:33:22.041Z,72.40
2022-12-18T04:35:48.568Z,71.50
2022-12-18T04:38:15.229Z,78.85
2022-12-18T04:40:41.899Z,74.65
2022-12-18T04:43:08.906Z,71.25
2022-12-18T04:45:35.741Z,72.07
2022-12-18T04:48:03.777Z,73.63
2022-12-18T04:50:30.968Z,70.43
2022-12-18T04:52:58.277Z,74.65
2022-12-18T04:55:26.540Z,77.75
2022-12-18T04:57:53.368Z,71.63
2022-12-18T05:00:29.005Z,71.72
2022-12-18T05:03:02.789Z,67.78
2022-12-18T05:05:31.740Z,72.47
2022-12-18T05:07:58.535Z,73.45
2022-12-18T05:10:25.016Z,72.82
2022-12-18T05:13:02.265Z,76.82
2022-12-18T05:15:32.735Z,82.78
2022-12-18T05:18:01.957Z,71.47
2022-12-18T05:20:34.162Z,72.35
2022-12-18T05:23:00.680Z,77.22
2022-12-18T05:25:27.608Z,75.03
2022-12-18T05:27:56.360Z,72.22
2022-12-18T05:30:23.668Z,71.65
2022-12-18T05:32:50.151Z,74.72
2022-12-18T05:35:22.978Z,75.40
2022-12-18T05:37:49.444Z,74.82
2022-12-18T05:40:15.945Z,77.25
2022-12-18T05:42:48.944Z,66.80
2022-12-18T05:45:15.460Z,75.80
2022-12-18T05:47:42.016Z,77.50
2022-12-18T05:50:09.008Z,71.82
2022-12-18T05:52:37.761Z,71.40
2022-12-18T05:55:05.423Z,78.80
2022-12-18T05:57:33.649Z,73.03
2022-12-18T06:00:00.295Z,71.00
2022-12-18T06:02:26.872Z,71.35
2022-12-18T06:04:55.165Z,77.28
2022-12-18T06:07:21.632Z,71.05
2022-12-18T06:09:48.088Z,78.18
2022-12-18T06:12:16.348Z,78.13
2022-12-18T06:14:42.906Z,72.63
2022-12-18T06:17:09.473Z,68.25
2022-12-18T06:19:37.838Z,75.40
2022-12-18T06:22:04.569Z,77.47
2022-12-18T06:24:31.201Z,76.65
2022-12-18T06:27:04.264Z,76.72
2022-12-18T06:29:30.737Z,76.20
2022-12-18T06:31:57.242Z,75.03
2022-12-18T06:34:23.992Z,69.35
2022-12-18T06:36:50.496Z,72.07
2022-12-18T06:39:20.645Z,71.35
2022-12-18T06:41:47.225Z,83.97
2022-12-18T06:44:13.721Z,73.55
2022-12-18T06:46:40.276Z,68.43
2022-12-18T06:49:12.313Z,73.53
2022-12-18T06:51:42.588Z,69.95
2022-12-18T06:54:09.497Z,75.50
2022-12-18T06:56:37.822Z,72.13
2022-12-18T06:59:04.390Z,70.40
2022-12-18T07:01:30.956Z,77.60
2022-12-18T07:04:00.344Z,74.07
2022-12-18T07:06:27.170Z,72.97
2022-12-18T07:08:55.191Z,80.03
2022-12-18T07:11:22.961Z,71.65
2022-12-18T07:13:49.489Z,77.82
2022-12-18T07:16:24.250Z,77.43
2022-12-18T07:18:53.732Z,70.72
2022-12-18T07:21:25.535Z,80.40
2022-12-18T07:23:52.517Z,69.40
2022-12-18T07:26:24.411Z,76.10
2022-12-18T07:28:51.793Z,74.65
2022-12-18T07:31:21.955Z,72.63
2022-12-18T07:33:49.704Z,77.90
2022-12-18T07:36:16.465Z,74.15
2022-12-18T07:38:43.241Z,74.15
2022-12-18T07:41:12.520Z,75.05
2022-12-18T07:43:40.251Z,68.95
2022-12-18T07:46:10.001Z,73.13
2022-12-18T07:48:49.412Z,67.05
2022-12-18T07:51:18.119Z,69.13
2022-12-18T07:53:45.379Z,66.72
2022-12-18T07:56:27.029Z,71.32
2022-12-18T07:58:55.367Z,70.65
2022-12-18T08:01:22.176Z,71.25
2022-12-18T08:03:48.796Z,70.50
2022-12-18T08:06:17.448Z,68.57
2022-12-18T08:08:44.107Z,66.65
2022-12-18T08:11:10.919Z,72.25
2022-12-18T08:13:37.669Z,69.38
2022-12-18T08:16:07.475Z,71.60
2022-12-18T08:18:36.082Z,70.22
2022-12-18T08:21:14.454Z,68.97
2022-12-18T08:23:46.139Z,68.93
2022-12-18T08:26:13.829Z,69.07
2022-12-18T08:28:41.230Z,59.40
2022-12-18T08:31:11.673Z,64.43
2022-12-18T08:33:39.466Z,71.60
2022-12-18T08:36:08.854Z,68.70
2022-12-18T08:38:35.555Z,68.53
2022-12-18T08:41:03.519Z,70.32
2022-12-18T08:43:51.377Z,66.07
2022-12-18T08:46:22.524Z,67.65
2022-12-18T08:48:51.142Z,66.25
2022-12-18T08:51:20.378Z,61.45
2022-12-18T08:53:47.315Z,70.07
2022-12-18T08:56:15.309Z,68.07
2022-12-18T08:58:42.597Z,64.38
2022-12-18T09:01:12.975Z,69.32
2022-12-18T09:03:40.330Z,61.35
2022-12-18T09:06:07.916Z,61.20
2022-12-18T09:08:34.819Z,72.35
2022-12-18T09:11:01.401Z,60.55
2022-12-18T09:13:33.347Z,62.30
2022-12-18T09:15:59.904Z,66.30
2022-12-18T09:18:26.435Z,60.25
2022-12-18T09:20:54.024Z,63.70
2022-12-18T09:23:26.945Z,62.53
2022-12-18T09:26:02.221Z,56.65
2022-12-18T09:28:28.799Z,63.75
2022-12-18T09:30:55.522Z,69.28
2022-12-18T09:33:23.807Z,61.75
2022-12-18T09:35:54.860Z,57.95
2022-12-18T09:38:21.456Z,58.08
2022-12-18T09:40:55.742Z,56.80
2022-12-18T09:43:33.553Z,58.33
2022-12-18T09:46:05.956Z,55.55
2022-12-18T09:48:37.549Z,56.40
2022-12-18T09:51:16.165Z,50.42
2022-12-18T09:53:47.990Z,48.30
2022-12-18T09:56:19.739Z,53.08
2022-12-18T09:59:01.114Z,52.92
2022-12-18T10:01:38.894Z,52.15
2022-12-18T10:04:10.529Z,51.20
2022-12-18T10:06:53.813Z,49.55
2022-12-18T10:09:29.474Z,46.47
2022-12-18T10:14:47.565Z,50.67
2022-12-18T10:18:05.378Z,47.35
2022-12-18T10:20:49.742Z,46.70
2022-12-18T10:23:46.519Z,46.00
2022-12-18T10:26:14.782Z,50.35
2022-12-18T10:28:43.243Z,51.85
2022-12-18T10:31:30.196Z,50.42
2022-12-18T10:33:59.181Z,51.63
2022-12-18T10:36:26.119Z,53.00
2022-12-18T10:38:57.694Z,45.10
2022-12-18T10:41:29.270Z,49.25
2022-12-18T10:44:25.766Z,49.92
2022-12-18T10:47:06.136Z,49.05
2022-12-18T10:49:38.450Z,50.38
2022-12-18T10:52:18.545Z,45.85
2022-12-18T10:54:54.217Z,50.80
2022-12-18T10:57:39.602Z,44.65
2022-12-18T11:00:28.432Z,45.37
2022-12-18T11:02:55.774Z,46.53
2022-12-18T11:05:26.829Z,46.13
2022-12-18T11:07:57.116Z,47.10
2022-12-18T11:10:31.564Z,45.63
2022-12-18T11:13:20.302Z,47.38
2022-12-18T11:15:47.416Z,50.13
2022-12-18T11:18:34.805Z,43.95
2022-12-18T11:21:08.618Z,47.97
2022-12-18T11:23:47.275Z,48.92
2022-12-18T11:26:16.230Z,46.15
2022-12-18T11:28:50.540Z,50.45
2022-12-18T11:31:34.543Z,43.80
2022-12-18T11:34:34.286Z,50.65
2022-12-18T11:37:04.155Z,49.72
2022-12-18T11:39:33.420Z,44.05
2022-12-18T11:42:13.588Z,46.20
2022-12-18T11:44:51.913Z,45.08
2022-12-18T11:47:32.432Z,44.83
2022-12-18T11:50:02.100Z,48.92
2022-12-18T11:52:39.813Z,51.40
2022-12-18T11:55:16.621Z,48.13
2022-12-18T11:58:00.329Z,45.67
2022-12-18T12:00:27.064Z,45.40
2022-12-18T12:02:56.329Z,48.28
2022-12-18T12:05:44.662Z,47.30
2022-12-18T12:08:23.148Z,45.45
2022-12-18T12:10:56.032Z,47.15
2022-12-18T12:13:24.750Z,50.17
2022-12-18T12:16:19.720Z,43.30
2022-12-18T12:19:00.977Z,41.75
2022-12-18T12:21:41.522Z,44.60
2022-12-18T12:24:32.674Z,50.63
2022-12-18T12:27:23.424Z,44.92
2022-12-18T12:30:05.207Z,46.03
2022-12-18T12:32:55.565Z,47.25
2022-12-18T12:35:36.318Z,46.60
2022-12-18T12:38:22.633Z,46.75
2022-12-18T12:41:03.658Z,49.05
2022-12-18T12:43:50.311Z,45.65
2022-12-18T12:46:22.348Z,44.70
2022-12-18T12:48:58.414Z,50.70
2022-12-18T12:51:36.959Z,46.10
2022-12-18T12:54:09.558Z,45.05
2022-12-18T12:56:46.908Z,46.28
2022-12-18T12:59:24.244Z,50.78
2022-12-18T13:02:03.540Z,49.53
2022-12-18T13:04:55.334Z,42.28
2022-12-18T13:07:33.661Z,47.88
2022-12-18T13:10:19.173Z,45.22
2022-12-18T13:13:02.661Z,46.47
2022-12-18T13:15:47.686Z,47.15
2022-12-18T13:18:15.627Z,51.63
2022-12-18T13:21:12.893Z,45.38
2022-12-18T13:23:40.267Z,52.53
2022-12-18T13:26:16.244Z,44.70
2022-12-18T13:28:48.854Z,51.40
2022-12-18T13:31:37.798Z,44.78
2022-12-18T13:34:30.910Z,49.53
2022-12-18T13:37:32.980Z,52.50
2022-12-18T13:39:59.619Z,46.80
2022-12-18T13:42:59.304Z,43.28
2022-12-18T13:45:47.360Z,43.15
2022-12-18T13:48:20.173Z,46.00
2022-12-18T13:50:53.625Z,48.40
2022-12-18T13:53:28.955Z,46.05
2022-12-18T13:55:56.087Z,47.53
2022-12-18T13:58:23.404Z,51.47
2022-12-18T14:00:50.138Z,44.67
2022-12-18T14:03:27.066Z,45.08
2022-12-18T14:06:06.543Z,49.87
2022-12-18T14:08:42.514Z,48.92
2022-12-18T14:11:22.087Z,45.33
2022-12-18T14:13:50.367Z,52.65
2022-12-18T14:16:28.851Z,47.85
2022-12-18T14:19:04.480Z,49.92
2022-12-18T14:21:39.041Z,46.10
2022-12-18T14:24:19.874Z,44.90
2022-12-18T14:26:54.278Z,45.35
2022-12-18T14:29:27.442Z,43.08
2022-12-18T14:32:15.027Z,46.92
2022-12-18T14:34:56.949Z,47.90
2022-12-18T14:37:28.092Z,43.92
2022-12-18T14:40:10.499Z,46.15
2022-12-18T14:42:38.529Z,49.33
2022-12-18T14:45:42.404Z,47.97
2022-12-18T14:48:10.790Z,49.47
2022-12-18T14:50:39.561Z,45.63
2022-12-18T14:53:07.863Z,44.45
2022-12-18T14:55:34.383Z,46.10
2022-12-18T14:58:00.893Z,43.90
2022-12-18T15:00:27.657Z,45.92
2022-12-18T15:02:57.082Z,46.13
2022-12-18T15:05:32.831Z,44.05
2022-12-18T15:10:36.181Z,43.40
2022-12-18T15:13:03.984Z,42.13
2022-12-18T15:15:45.990Z,41.97
2022-12-18T15:18:18.793Z,42.05
2022-12-18T15:20:53.485Z,43.70
2022-12-18T15:23:19.966Z,39.03
2022-12-18T15:25:47.857Z,42.40
2022-12-18T15:28:34.462Z,45.22
2022-12-18T15:31:04.093Z,44.00
2022-12-18T15:33:34.333Z,43.38
2022-12-18T15:36:09.756Z,46.78
2022-12-18T15:38:37.101Z,42.92
2022-12-18T15:41:04.163Z,50.05
2022-12-18T15:43:37.833Z,41.88
2022-12-18T15:46:14.416Z,43.13
2022-12-18T15:48:47.601Z,43.60
2022-12-18T15:51:21.264Z,50.83
2022-12-18T15:53:55.695Z,43.97
2022-12-18T15:56:40.988Z,43.22
2022-12-18T15:59:24.775Z,43.20
2022-12-18T16:01:56.174Z,46.75
2022-12-18T16:04:24.550Z,47.75
2022-12-18T16:09:41.427Z,44.55
2022-12-18T16:12:15.161Z,39.72
2022-12-18T16:14:41.750Z,45.30
2022-12-18T16:17:12.461Z,49.65
2022-12-18T16:19:39.302Z,47.67
2022-12-18T16:22:06.576Z,46.42
2022-12-18T16:24:34.682Z,51.70
2022-12-18T16:27:03.486Z,47.42
2022-12-18T16:29:30.401Z,50.05
2022-12-18T16:32:01.221Z,49.05
2022-12-18T16:34:36.155Z,48.85
2022-12-18T16:37:08.005Z,44.17
2022-12-18T16:39:35.635Z,49.80
2022-12-18T16:42:21.202Z,47.30
2022-12-18T16:44:49.634Z,52.83
2022-12-18T16:47:17.051Z,52.50
2022-12-18T16:49:47.645Z,54.85
2022-12-18T16:52:15.702Z,50.08
2022-12-18T16:54:42.753Z,48.92
2022-12-18T16:57:13.607Z,50.78
2022-12-18T16:59:40.218Z,50.63
2022-12-18T17:02:13.358Z,52.05
2022-12-18T17:04:41.726Z,53.08
2022-12-18T17:07:08.810Z,53.08
2022-12-18T17:09:35.826Z,54.97
2022-12-18T17:12:04.805Z,50.22
2022-12-18T17:14:33.404Z,53.88
2022-12-18T17:17:20.982Z,54.03
2022-12-18T17:19:47.459Z,57.50
2022-12-18T17:22:14.431Z,54.00
2022-12-18T17:24:40.957Z,59.85
2022-12-18T17:27:10.660Z,58.88
2022-12-18T17:29:39.132Z,51.28
2022-12-18T17:32:10.589Z,59.40
2022-12-18T17:34:42.486Z,58.30
2022-12-18T17:37:09.140Z,59.80
2022-12-18T17:39:35.718Z,59.42
2022-12-18T17:42:02.387Z,60.97
2022-12-18T17:44:30.673Z,61.20
2022-12-18T17:46:57.188Z,60.38
2022-12-18T17:49:23.935Z,66.53
2022-12-18T17:51:51.473Z,58.58
2022-12-18T17:54:18.076Z,69.18
2022-12-18T17:56:53.127Z,60.22
2022-12-18T17:59:19.648Z,66.38
2022-12-18T18:01:46.476Z,66.60
2022-12-18T18:04:15.535Z,68.13
2022-12-18T18:06:42.133Z,67.28
2022-12-18T18:09:15.160Z,67.28
2022-12-18T18:12:01.910Z,64.95
2022-12-18T18:14:31.361Z,67.30
2022-12-18T18:16:59.174Z,69.35
2022-12-18T18:19:33.334Z,68.47
2022-12-18T18:22:03.766Z,68.88
2022-12-18T18:24:30.922Z,73.30
2022-12-18T18:26:59.708Z,75.30
2022-12-18T18:29:27.895Z,73.15
2022-12-18T18:31:55.740Z,67.90
2022-12-18T18:34:27.606Z,66.63
2022-12-18T18:36:54.226Z,72.05
2022-12-18T18:39:21.072Z,70.72
2022-12-18T18:41:50.309Z,73.00
2022-12-18T18:44:18.549Z,75.80
2022-12-18T18:46:45.367Z,77.00
2022-12-18T18:49:15.421Z,72.78
2022-12-18T18:51:42.378Z,73.82
2022-12-18T18:54:09.669Z,82.50
2022-12-18T18:59:30.911Z,79.28
2022-12-18T19:02:05.227Z,73.57
2022-12-18T19:04:33.789Z,85.43
2022-12-18T19:07:00.512Z,82.20
2022-12-18T19:09:27.664Z,77.53
2022-12-18T19:12:13.498Z,80.95
2022-12-18T19:14:40.101Z,82.28
2022-12-18T19:17:06.620Z,83.53
2022-12-18T19:19:33.441Z,84.03
2022-12-18T19:22:00.112Z,83.95
2022-12-18T19:24:27.093Z,78.43
2022-12-18T19:26:55.356Z,79.53
2022-12-18T19:29:25.120Z,85.53
2022-12-18T19:31:51.867Z,85.15
2022-12-18T19:34:21.942Z,80.50
2022-12-18T19:36:52.101Z,88.70
2022-12-18T19:39:23.110Z,86.53
2022-12-18T19:41:49.610Z,83.75
2022-12-18T19:44:19.398Z,91.65
2022-12-18T19:46:51.974Z,85.78
2022-12-18T19:49:18.507Z,86.32
2022-12-18T19:51:50.520Z,96.53
2022-12-18T19:54:17.899Z,91.20
2022-12-18T19:56:45.674Z,84.13
2022-12-18T19:59:17.562Z,92.75
2022-12-18T20:01:44.222Z,90.63
2022-12-18T20:04:11.029Z,94.70
2022-12-18T20:06:53.822Z,92.85
2022-12-18T20:09:21.230Z,93.13
2022-12-18T20:11:48.769Z,96.95
2022-12-18T20:14:22.654Z,93.22
2022-12-18T20:16:54.468Z,97.80
2022-12-18T20:19:23.642Z,100.18
2022-12-18T20:21:54.004Z,94.20
2022-12-18T20:24:20.570Z,103.03
2022-12-18T20:26:49.359Z,94.60
2022-12-18T20:29:17.761Z,102.20
2022-12-18T20:31:44.354Z,92.30
2022-12-18T20:34:12.693Z,95.03
2022-12-18T20:36:39.808Z,97.70
2022-12-18T20:39:08.919Z,99.97
2022-12-18T20:41:43.950Z,97.05
2022-12-18T20:44:22.774Z,98.63
2022-12-18T20:47:01.171Z,106.55
2022-12-18T20:49:34.180Z,96.95
2022-12-18T20:52:02.929Z,107.60
2022-12-18T20:54:29.397Z,104.95
2022-12-18T20:56:56.703Z,102.47
2022-12-18T20:59:27.230Z,105.10
2022-12-18T21:01:58.332Z,101.88
2022-12-18T21:04:25.264Z,97.10
2022-12-18T21:06:59.274Z,107.95
2022-12-18T21:09:30.695Z,92.80
2022-12-18T21:12:32.501Z,105.70
2022-12-18T21:15:09.621Z,96.38
2022-12-18T21:17:40.114Z,111.13
2022-12-18T21:20:11.891Z,97.25
2022-12-18T21:22:51.315Z,95.80
2022-12-18T21:25:20.499Z,97.65
2022-12-18T21:27:49.118Z,99.15
2022-12-18T21:30:17.551Z,97.95
2022-12-18T21:32:44.155Z,99.18
2022-12-18T21:35:10.896Z,104.72
2022-12-18T21:37:39.284Z,98.13
2022-12-18T21:40:07.053Z,95.43
2022-12-18T21:42:52.412Z,94.18
2022-12-18T21:45:18.893Z,93.00
2022-12-18T21:47:45.419Z,93.35
2022-12-18T21:50:18.508Z,105.25
2022-12-18T21:52:45.004Z,96.10
2022-12-18T21:55:11.516Z,105.47
2022-12-18T21:57:41.461Z,91.22
2022-12-18T22:00:18.403Z,93.95
2022-12-18T22:02:49.598Z,99.05
2022-12-18T22:05:34.623Z,94.07
2022-12-18T22:08:01.729Z,92.07
2022-12-18T22:10:28.608Z,98.57
2022-12-18T22:12:55.215Z,91.03
2022-12-18T22:15:23.557Z,90.35
2022-12-18T22:17:50.901Z,98.53
2022-12-18T22:20:18.387Z,96.57
2022-12-18T22:22:47.386Z,96.88
2022-12-18T22:25:14.118Z,85.25
2022-12-18T22:27:40.583Z,93.32
2022-12-18T22:30:10.550Z,88.90
2022-12-18T22:32:37.008Z,85.10
2022-12-18T22:35:09.506Z,98.15
2022-12-18T22:37:41.119Z,88.20
2022-12-18T22:40:10.490Z,84.60
2022-12-18T22:42:39.698Z,84.38
2022-12-18T22:45:06.787Z,84.85
2022-12-18T22:47:33.288Z,90.25
2022-12-18T22:49:59.781Z,85.85
2022-12-18T22:52:30.745Z,82.20
2022-12-18T22:54:57.228Z,82.65
2022-12-18T22:57:24.357Z,90.75
2022-12-18T22:59:51.652Z,86.88
2022-12-18T23:02:19.169Z,83.53
2022-12-18T23:04:46.237Z,97.78
2022-12-18T23:07:14.689Z,75.95
2022-12-18T23:09:41.290Z,85.63
2022-12-18T23:12:08.028Z,89.25
2022-12-18T23:14:41.150Z,82.65
2022-12-18T23:17:07.606Z,88.43
2022-12-18T23:19:37.510Z,83.93
2022-12-18T23:22:08.591Z,79.28
2022-12-18T23:24:38.373Z,84.15
2022-12-18T23:27:04.944Z,79.50
2022-12-18T23:29:37.341Z,94.38
2022-12-18T23:32:03.972Z,87.35
2022-12-18T23:34:30.494Z,76.25
2022-12-18T23:37:05.413Z,80.00
2022-12-18T23:39:31.878Z,72.30
2022-12-18T23:41:58.861Z,77.38
2022-12-18T23:44:25.956Z,80.90
2022-12-18T23:46:55.297Z,82.43
2022-12-18T23:49:21.966Z,73.47
2022-12-18T23:51:49.208Z,77.93
2022-12-18T23:54:15.760Z,81.63
2022-12-18T23:56:42.523Z,77.57
2022-12-18T23:59:11.364Z,88.55
